sensor_id;sensor_type;location;lat;lon;timestamp;pressure;altitude;pressure_sealevel;temperature;humidity
21100;BME280;10708;50.824;4.408;2023-03-23T00:01:37;99363.13;;;12.47;100.00
21100;BME280;10708;50.824;4.408;2023-03-23T00:06:40;99355.84;;;12.50;100.00
21100;BME280;10708;50.824;4.408;2023-03-23T00:11:42;99344.66;;;12.47;100.00
21100;BME280;10708;50.824;4.408;2023-03-23T00:16:46;99346.53;;;12.45;100.00
21100;BME280;10708;50.824;4.408;2023-03-23T00:21:49;99339.44;;;12.45;100.00
21100;BME280;10708;50.824;4.408;2023-03-23T00:26:54;99345.69;;;12.44;100.00
21100;BME280;10708;50.824;4.408;2023-03-23T00:32:00;99360.66;;;12.44;100.00
21100;BME280;10708;50.824;4.408;2023-03-23T00:37:03;99339.63;;;12.42;100.00
21100;BME280;10708;50.824;4.408;2023-03-23T00:42:05;99328.13;;;12.43;100.00
21100;BME280;10708;50.824;4.408;2023-03-23T00:47:11;99342.47;;;12.39;100.00
21100;BME280;10708;50.824;4.408;2023-03-23T00:52:13;99352.94;;;12.41;100.00
21100;BME280;10708;50.824;4.408;2023-03-23T00:57:16;99336.22;;;12.40;100.00
21100;BME280;10708;50.824;4.408;2023-03-23T01:02:20;99366.22;;;12.39;100.00
21100;BME280;10708;50.824;4.408;2023-03-23T01:07:25;99360.75;;;12.42;100.00
21100;BME280;10708;50.824;4.408;2023-03-23T01:12:29;99361.59;;;12.43;100.00
21100;BME280;10708;50.824;4.408;2023-03-23T01:17:32;99355.47;;;12.42;100.00
21100;BME280;10708;50.824;4.408;2023-03-23T01:22:35;99356.22;;;12.44;100.00
21100;BME280;10708;50.824;4.408;2023-03-23T01:27:38;99348.41;;;12.43;100.00
21100;BME280;10708;50.824;4.408;2023-03-23T01:32:42;99339.63;;;12.42;100.00
21100;BME280;10708;50.824;4.408;2023-03-23T01:37:44;99323.03;;;12.40;100.00
21100;BME280;10708;50.824;4.408;2023-03-23T01:42:48;99295.88;;;12.38;100.00
21100;BME280;10708;50.824;4.408;2023-03-23T01:47:59;99311.53;;;12.41;100.00
21100;BME280;10708;50.824;4.408;2023-03-23T01:53:06;99308.03;;;12.41;100.00
21100;BME280;10708;50.824;4.408;2023-03-23T01:58:11;99314.16;;;12.41;100.00
21100;BME280;10708;50.824;4.408;2023-03-23T02:03:15;99300.88;;;12.43;100.00
21100;BME280;10708;50.824;4.408;2023-03-23T02:08:18;99314.84;;;12.45;100.00
21100;BME280;10708;50.824;4.408;2023-03-23T02:13:21;99318.50;;;12.42;100.00
21100;BME280;10708;50.824;4.408;2023-03-23T02:18:35;99328.03;;;12.45;100.00
21100;BME280;10708;50.824;4.408;2023-03-23T02:34:55;99317.00;;;12.38;100.00
21100;BME280;10708;50.824;4.408;2023-03-23T02:40:03;99308.13;;;12.39;100.00
21100;BME280;10708;50.824;4.408;2023-03-23T02:45:11;99323.03;;;12.40;100.00
21100;BME280;10708;50.824;4.408;2023-03-23T02:50:18;99317.97;;;12.37;100.00
21100;BME280;10708;50.824;4.408;2023-03-23T02:55:22;99305.72;;;12.36;100.00
21100;BME280;10708;50.824;4.408;2023-03-23T03:00:25;99318.78;;;12.38;100.00
21100;BME280;10708;50.824;4.408;2023-03-23T03:05:37;99313.63;;;12.36;100.00
21100;BME280;10708;50.824;4.408;2023-03-23T03:10:46;99326.91;;;12.35;100.00
21100;BME280;10708;50.824;4.408;2023-03-23T03:15:54;99322.59;;;12.34;100.00
21100;BME280;10708;50.824;4.408;2023-03-23T03:21:03;99319.09;;;12.33;100.00
21100;BME280;10708;50.824;4.408;2023-03-23T03:26:09;99325.22;;;12.34;100.00
21100;BME280;10708;50.824;4.408;2023-03-23T03:31:15;99309.38;;;12.34;100.00
21100;BME280;10708;50.824;4.408;2023-03-23T03:36:24;99314.56;;;12.35;100.00
21100;BME280;10708;50.824;4.408;2023-03-23T03:41:28;99318.06;;;12.36;100.00
21100;BME280;10708;50.824;4.408;2023-03-23T03:46:31;99313.63;;;12.36;100.00
21100;BME280;10708;50.824;4.408;2023-03-23T03:51:35;99318.91;;;12.36;100.00
21100;BME280;10708;50.824;4.408;2023-03-23T03:56:37;99331.25;;;12.36;100.00
21100;BME280;10708;50.824;4.408;2023-03-23T04:01:41;99321.72;;;12.33;100.00
21100;BME280;10708;50.824;4.408;2023-03-23T04:06:44;99324.38;;;12.33;100.00
21100;BME280;10708;50.824;4.408;2023-03-23T04:11:49;99340.38;;;12.30;100.00
21100;BME280;10708;50.824;4.408;2023-03-23T04:16:51;99321.16;;;12.28;100.00
21100;BME280;10708;50.824;4.408;2023-03-23T04:21:59;99317.69;;;12.28;100.00
21100;BME280;10708;50.824;4.408;2023-03-23T04:27:02;99309.97;;;12.25;100.00
21100;BME280;10708;50.824;4.408;2023-03-23T04:32:04;99331.16;;;12.23;100.00
21100;BME280;10708;50.824;4.408;2023-03-23T04:37:08;99335.59;;;12.23;100.00
21100;BME280;10708;50.824;4.408;2023-03-23T04:42:10;99327.69;;;12.23;100.00
21100;BME280;10708;50.824;4.408;2023-03-23T04:47:14;99343.41;;;12.24;100.00
21100;BME280;10708;50.824;4.408;2023-03-23T04:52:19;99334.66;;;12.24;100.00
21100;BME280;10708;50.824;4.408;2023-03-23T04:57:22;99324.28;;;12.20;100.00
21100;BME280;10708;50.824;4.408;2023-03-23T05:02:24;99328.06;;;12.16;100.00
21100;BME280;10708;50.824;4.408;2023-03-23T05:07:32;99336.56;;;12.07;100.00
21100;BME280;10708;50.824;4.408;2023-03-23T05:12:35;99340.41;;;12.02;100.00
21100;BME280;10708;50.824;4.408;2023-03-23T05:17:37;99335.59;;;11.94;100.00
21100;BME280;10708;50.824;4.408;2023-03-23T05:22:42;99337.47;;;11.92;100.00
21100;BME280;10708;50.824;4.408;2023-03-23T05:27:46;99343.78;;;11.90;100.00
21100;BME280;10708;50.824;4.408;2023-03-23T05:32:53;99349.97;;;11.89;100.00
21100;BME280;10708;50.824;4.408;2023-03-23T05:37:56;99347.34;;;11.89;100.00
21100;BME280;10708;50.824;4.408;2023-03-23T05:42:59;99350.84;;;11.89;100.00
21100;BME280;10708;50.824;4.408;2023-03-23T05:48:01;99364.03;;;11.89;100.00
21100;BME280;10708;50.824;4.408;2023-03-23T05:53:05;99368.44;;;11.89;100.00
21100;BME280;10708;50.824;4.408;2023-03-23T05:58:07;99369.97;;;11.93;100.00
21100;BME280;10708;50.824;4.408;2023-03-23T06:03:10;99380.53;;;11.93;100.00
21100;BME280;10708;50.824;4.408;2023-03-23T06:08:14;99377.81;;;11.94;100.00
21100;BME280;10708;50.824;4.408;2023-03-23T06:13:16;99379.69;;;11.92;100.00
21100;BME280;10708;50.824;4.408;2023-03-23T06:18:19;99385.72;;;11.94;100.00
21100;BME280;10708;50.824;4.408;2023-03-23T06:23:23;99375.06;;;11.96;100.00
21100;BME280;10708;50.824;4.408;2023-03-23T06:28:26;99389.75;;;12.00;100.00
21100;BME280;10708;50.824;4.408;2023-03-23T06:33:29;99404.41;;;12.05;100.00
21100;BME280;10708;50.824;4.408;2023-03-23T06:38:32;99401.47;;;12.10;100.00
21100;BME280;10708;50.824;4.408;2023-03-23T06:43:35;99400.63;;;12.09;100.00
21100;BME280;10708;50.824;4.408;2023-03-23T06:48:40;99420.63;;;12.13;100.00
21100;BME280;10708;50.824;4.408;2023-03-23T06:53:44;99414.75;;;12.08;100.00
21100;BME280;10708;50.824;4.408;2023-03-23T06:58:46;99410.41;;;11.93;100.00
21100;BME280;10708;50.824;4.408;2023-03-23T07:03:49;99406.00;;;11.78;100.00
21100;BME280;10708;50.824;4.408;2023-03-23T07:08:53;99412.56;;;11.71;100.00
21100;BME280;10708;50.824;4.408;2023-03-23T07:13:55;99414.22;;;11.58;100.00
21100;BME280;10708;50.824;4.408;2023-03-23T07:18:58;99441.94;;;11.49;100.00
21100;BME280;10708;50.824;4.408;2023-03-23T07:24:02;99447.03;;;11.06;100.00
21100;BME280;10708;50.824;4.408;2023-03-23T07:29:04;99451.09;;;10.48;100.00
21100;BME280;10708;50.824;4.408;2023-03-23T07:34:07;99486.56;;;10.23;100.00
21100;BME280;10708;50.824;4.408;2023-03-23T07:39:11;99479.75;;;10.19;100.00
21100;BME280;10708;50.824;4.408;2023-03-23T07:44:14;99495.66;;;10.18;100.00
21100;BME280;10708;50.824;4.408;2023-03-23T07:49:16;99494.69;;;10.19;100.00
21100;BME280;10708;50.824;4.408;2023-03-23T07:54:20;99492.63;;;10.25;100.00
21100;BME280;10708;50.824;4.408;2023-03-23T07:59:23;99497.47;;;10.33;100.00
21100;BME280;10708;50.824;4.408;2023-03-23T08:04:26;99496.41;;;10.37;100.00
21100;BME280;10708;50.824;4.408;2023-03-23T08:09:30;99511.16;;;10.40;100.00
21100;BME280;10708;50.824;4.408;2023-03-23T08:14:32;99542.75;;;10.40;100.00
21100;BME280;10708;50.824;4.408;2023-03-23T08:19:35;99541.44;;;10.31;100.00
21100;BME280;10708;50.824;4.408;2023-03-23T08:24:40;99543.69;;;10.21;100.00
21100;BME280;10708;50.824;4.408;2023-03-23T08:29:44;99543.19;;;10.13;100.00
21100;BME280;10708;50.824;4.408;2023-03-23T08:34:46;99550.53;;;10.07;100.00
21100;BME280;10708;50.824;4.408;2023-03-23T08:39:52;99540.56;;;9.96;100.00
21100;BME280;10708;50.824;4.408;2023-03-23T08:44:55;99540.56;;;9.96;100.00
21100;BME280;10708;50.824;4.408;2023-03-23T08:49:57;99542.94;;;10.00;100.00
21100;BME280;10708;50.824;4.408;2023-03-23T08:55:01;99537.75;;;9.99;100.00
21100;BME280;10708;50.824;4.408;2023-03-23T09:00:07;99551.47;;;10.06;100.00
21100;BME280;10708;50.824;4.408;2023-03-23T09:05:16;99544.03;;;10.14;100.00
21100;BME280;10708;50.824;4.408;2023-03-23T09:10:21;99557.28;;;10.12;100.00
21100;BME280;10708;50.824;4.408;2023-03-23T09:15:25;99562.47;;;10.14;100.00
21100;BME280;10708;50.824;4.408;2023-03-23T09:20:28;99567.16;;;10.26;100.00
21100;BME280;10708;50.824;4.408;2023-03-23T09:25:32;99569.38;;;10.33;100.00
21100;BME280;10708;50.824;4.408;2023-03-23T09:30:35;99560.50;;;10.36;100.00
21100;BME280;10708;50.824;4.408;2023-03-23T09:35:38;99547.88;;;10.43;100.00
21100;BME280;10708;50.824;4.408;2023-03-23T09:40:46;99554.88;;;10.59;100.00
21100;BME280;10708;50.824;4.408;2023-03-23T09:45:55;99564.59;;;10.92;100.00
21100;BME280;10708;50.824;4.408;2023-03-23T09:51:04;99563.03;;;11.21;100.00
21100;BME280;10708;50.824;4.408;2023-03-23T09:56:12;99572.41;;;11.42;100.00
21100;BME280;10708;50.824;4.408;2023-03-23T10:01:21;99572.34;;;11.59;100.00
21100;BME280;10708;50.824;4.408;2023-03-23T10:06:24;99568.81;;;11.76;100.00
21100;BME280;10708;50.824;4.408;2023-03-23T10:11:40;99561.72;;;11.92;100.00
21100;BME280;10708;50.824;4.408;2023-03-23T10:16:52;99565.38;;;12.05;100.00
21100;BME280;10708;50.824;4.408;2023-03-23T10:22:01;99559.16;;;12.36;100.00
21100;BME280;10708;50.824;4.408;2023-03-23T10:27:17;99558.16;;;12.53;100.00
21100;BME280;10708;50.824;4.408;2023-03-23T10:32:37;99577.19;;;12.58;100.00
21100;BME280;10708;50.824;4.408;2023-03-23T10:37:44;99578.75;;;12.90;100.00
21100;BME280;10708;50.824;4.408;2023-03-23T10:42:50;99577.06;;;12.75;100.00
21100;BME280;10708;50.824;4.408;2023-03-23T10:47:58;99575.06;;;12.79;100.00
21100;BME280;10708;50.824;4.408;2023-03-23T10:53:11;99561.91;;;13.07;100.00
21100;BME280;10708;50.824;4.408;2023-03-23T10:58:25;99567.19;;;13.21;100.00
21100;BME280;10708;50.824;4.408;2023-03-23T11:03:38;99577.09;;;13.46;100.00
21100;BME280;10708;50.824;4.408;2023-03-23T11:08:55;99562.09;;;13.74;100.00
21100;BME280;10708;50.824;4.408;2023-03-23T11:14:01;99572.34;;;13.92;100.00
21100;BME280;10708;50.824;4.408;2023-03-23T11:19:13;99557.50;;;14.17;100.00
21100;BME280;10708;50.824;4.408;2023-03-23T11:24:15;99539.41;;;14.23;100.00
21100;BME280;10708;50.824;4.408;2023-03-23T11:29:21;99543.94;;;14.21;100.00
21100;BME280;10708;50.824;4.408;2023-03-23T11:34:30;99541.97;;;14.25;100.00
21100;BME280;10708;50.824;4.408;2023-03-23T11:39:35;99529.03;;;14.33;100.00
21100;BME280;10708;50.824;4.408;2023-03-23T11:44:49;99489.63;;;14.28;100.00
21100;BME280;10708;50.824;4.408;2023-03-23T11:49:55;99494.28;;;14.25;100.00
21100;BME280;10708;50.824;4.408;2023-03-23T11:55:07;99509.22;;;14.26;100.00
21100;BME280;10708;50.824;4.408;2023-03-23T12:00:15;99508.84;;;14.45;100.00
21100;BME280;10708;50.824;4.408;2023-03-23T12:05:38;99518.09;;;14.77;100.00
21100;BME280;10708;50.824;4.408;2023-03-23T12:10:49;99520.22;;;14.85;100.00
21100;BME280;10708;50.824;4.408;2023-03-23T12:16:01;99513.09;;;14.85;100.00
21100;BME280;10708;50.824;4.408;2023-03-23T12:21:18;99500.59;;;14.74;100.00
21100;BME280;10708;50.824;4.408;2023-03-23T12:26:28;99501.97;;;14.80;100.00
21100;BME280;10708;50.824;4.408;2023-03-23T12:31:42;99493.06;;;14.81;100.00
21100;BME280;10708;50.824;4.408;2023-03-23T12:36:58;99488.94;;;14.77;100.00
21100;BME280;10708;50.824;4.408;2023-03-23T12:42:06;99497.41;;;14.82;100.00
21100;BME280;10708;50.824;4.408;2023-03-23T12:47:25;99504.41;;;14.83;100.00
21100;BME280;10708;50.824;4.408;2023-03-23T12:52:37;99511.94;;;14.64;100.00
21100;BME280;10708;50.824;4.408;2023-03-23T12:57:46;99526.06;;;14.77;100.00
21100;BME280;10708;50.824;4.408;2023-03-23T13:02:58;99549.44;;;15.08;100.00
21100;BME280;10708;50.824;4.408;2023-03-23T13:08:08;99546.13;;;15.30;100.00
21100;BME280;10708;50.824;4.408;2023-03-23T13:13:20;99539.84;;;15.44;100.00
21100;BME280;10708;50.824;4.408;2023-03-23T13:18:34;99540.59;;;15.46;100.00
21100;BME280;10708;50.824;4.408;2023-03-23T13:23:42;99510.09;;;15.51;100.00
21100;BME280;10708;50.824;4.408;2023-03-23T13:28:56;99492.38;;;15.65;100.00
21100;BME280;10708;50.824;4.408;2023-03-23T13:34:04;99500.66;;;15.47;100.00
21100;BME280;10708;50.824;4.408;2023-03-23T13:39:19;99472.66;;;15.56;100.00
21100;BME280;10708;50.824;4.408;2023-03-23T13:44:26;99474.81;;;15.38;100.00
21100;BME280;10708;50.824;4.408;2023-03-23T13:49:32;99482.69;;;15.27;100.00
21100;BME280;10708;50.824;4.408;2023-03-23T13:54:40;99492.78;;;15.22;100.00
21100;BME280;10708;50.824;4.408;2023-03-23T13:59:48;99501.91;;;15.18;100.00
21100;BME280;10708;50.824;4.408;2023-03-23T14:04:52;99501.13;;;14.42;100.00
21100;BME280;10708;50.824;4.408;2023-03-23T14:09:56;99470.19;;;14.02;100.00
21100;BME280;10708;50.824;4.408;2023-03-23T14:15:02;99446.72;;;13.71;100.00
21100;BME280;10708;50.824;4.408;2023-03-23T14:20:20;99448.47;;;13.58;100.00
21100;BME280;10708;50.824;4.408;2023-03-23T14:25:27;99453.13;;;13.54;100.00
21100;BME280;10708;50.824;4.408;2023-03-23T14:30:35;99453.13;;;13.54;100.00
21100;BME280;10708;50.824;4.408;2023-03-23T14:35:42;99454.00;;;13.67;100.00
21100;BME280;10708;50.824;4.408;2023-03-23T14:40:45;99453.06;;;13.68;100.00
21100;BME280;10708;50.824;4.408;2023-03-23T14:45:55;99461.31;;;13.64;100.00
21100;BME280;10708;50.824;4.408;2023-03-23T14:51:01;99432.84;;;13.67;100.00
21100;BME280;10708;50.824;4.408;2023-03-23T14:56:12;99432.69;;;13.83;100.00
21100;BME280;10708;50.824;4.408;2023-03-23T15:01:17;99416.84;;;14.09;100.00
21100;BME280;10708;50.824;4.408;2023-03-23T15:06:24;99411.25;;;14.26;100.00
21100;BME280;10708;50.824;4.408;2023-03-23T15:11:30;99403.41;;;14.37;100.00
21100;BME280;10708;50.824;4.408;2023-03-23T15:16:34;99416.75;;;14.35;100.00
21100;BME280;10708;50.824;4.408;2023-03-23T15:21:49;99394.53;;;14.51;100.00
21100;BME280;10708;50.824;4.408;2023-03-23T15:26:52;99404.06;;;14.53;100.00
21100;BME280;10708;50.824;4.408;2023-03-23T15:31:55;99422.25;;;14.58;100.00
21100;BME280;10708;50.824;4.408;2023-03-23T15:37:01;99405.13;;;14.51;100.00
21100;BME280;10708;50.824;4.408;2023-03-23T15:42:05;99413.25;;;14.60;100.00
21100;BME280;10708;50.824;4.408;2023-03-23T15:47:16;99406.38;;;14.58;100.00
21100;BME280;10708;50.824;4.408;2023-03-23T15:52:20;99415.59;;;14.52;100.00
21100;BME280;10708;50.824;4.408;2023-03-23T15:57:23;99401.41;;;14.40;100.00
21100;BME280;10708;50.824;4.408;2023-03-23T16:02:25;99400.88;;;14.48;100.00
21100;BME280;10708;50.824;4.408;2023-03-23T16:07:30;99398.22;;;14.48;100.00
21100;BME280;10708;50.824;4.408;2023-03-23T16:12:32;99386.38;;;14.54;100.00
21100;BME280;10708;50.824;4.408;2023-03-23T16:17:35;99399.41;;;14.57;100.00
21100;BME280;10708;50.824;4.408;2023-03-23T16:22:38;99391.47;;;14.57;100.00
21100;BME280;10708;50.824;4.408;2023-03-23T16:27:41;99393.97;;;14.58;100.00
21100;BME280;10708;50.824;4.408;2023-03-23T16:32:46;99381.56;;;14.59;100.00
21100;BME280;10708;50.824;4.408;2023-03-23T16:37:51;99368.31;;;14.59;100.00
21100;BME280;10708;50.824;4.408;2023-03-23T16:42:53;99381.25;;;14.63;100.00
21100;BME280;10708;50.824;4.408;2023-03-23T16:47:56;99379.66;;;14.61;100.00
21100;BME280;10708;50.824;4.408;2023-03-23T16:53:03;99387.72;;;14.59;100.00
21100;BME280;10708;50.824;4.408;2023-03-23T16:58:06;99371.03;;;14.46;100.00
21100;BME280;10708;50.824;4.408;2023-03-23T17:03:08;99385.94;;;14.34;100.00
21100;BME280;10708;50.824;4.408;2023-03-23T17:08:13;99371.94;;;14.32;100.00
21100;BME280;10708;50.824;4.408;2023-03-23T17:13:16;99373.63;;;14.33;100.00
21100;BME280;10708;50.824;4.408;2023-03-23T17:18:18;99357.44;;;14.25;100.00
21100;BME280;10708;50.824;4.408;2023-03-23T17:23:22;99346.00;;;14.25;100.00
21100;BME280;10708;50.824;4.408;2023-03-23T17:28:25;99340.81;;;14.23;100.00
21100;BME280;10708;50.824;4.408;2023-03-23T17:33:27;99329.69;;;14.18;100.00
21100;BME280;10708;50.824;4.408;2023-03-23T17:38:31;99326.19;;;14.18;100.00
21100;BME280;10708;50.824;4.408;2023-03-23T17:43:34;99321.22;;;14.13;100.00
21100;BME280;10708;50.824;4.408;2023-03-23T17:48:37;99323.53;;;14.18;100.00
21100;BME280;10708;50.824;4.408;2023-03-23T17:53:41;99313.19;;;14.15;100.00
21100;BME280;10708;50.824;4.408;2023-03-23T17:58:44;99312.13;;;14.17;100.00
21100;BME280;10708;50.824;4.408;2023-03-23T18:03:46;99308.00;;;14.13;100.00
21100;BME280;10708;50.824;4.408;2023-03-23T18:08:51;99299.09;;;14.14;100.00
21100;BME280;10708;50.824;4.408;2023-03-23T18:13:53;99292.97;;;14.14;100.00
21100;BME280;10708;50.824;4.408;2023-03-23T18:18:56;99301.00;;;14.12;100.00
21100;BME280;10708;50.824;4.408;2023-03-23T18:24:00;99288.72;;;14.11;100.00
21100;BME280;10708;50.824;4.408;2023-03-23T18:29:02;99290.63;;;14.09;100.00
21100;BME280;10708;50.824;4.408;2023-03-23T18:34:05;99288.81;;;14.10;100.00
21100;BME280;10708;50.824;4.408;2023-03-23T18:39:09;99285.13;;;13.99;100.00
21100;BME280;10708;50.824;4.408;2023-03-23T18:44:12;99282.91;;;13.93;100.00
21100;BME280;10708;50.824;4.408;2023-03-23T18:49:14;99290.63;;;13.71;100.00
21100;BME280;10708;50.824;4.408;2023-03-23T18:54:18;99278.66;;;13.53;100.00
21100;BME280;10708;50.824;4.408;2023-03-23T18:59:21;99269.00;;;13.39;100.00
21100;BME280;10708;50.824;4.408;2023-03-23T19:04:23;99267.00;;;13.30;100.00
21100;BME280;10708;50.824;4.408;2023-03-23T19:09:33;99266.13;;;13.17;100.00
21100;BME280;10708;50.824;4.408;2023-03-23T19:14:37;99262.25;;;13.08;100.00
21100;BME280;10708;50.824;4.408;2023-03-23T19:19:40;99257.94;;;13.07;100.00
21100;BME280;10708;50.824;4.408;2023-03-23T19:24:44;99245.03;;;13.03;100.00
21100;BME280;10708;50.824;4.408;2023-03-23T19:29:46;99240.69;;;13.02;100.00
21100;BME280;10708;50.824;4.408;2023-03-23T19:34:49;99245.97;;;13.02;100.00
21100;BME280;10708;50.824;4.408;2023-03-23T19:39:52;99256.53;;;13.02;100.00
21100;BME280;10708;50.824;4.408;2023-03-23T19:44:55;99238.03;;;13.02;100.00
21100;BME280;10708;50.824;4.408;2023-03-23T19:49:57;99236.34;;;13.01;100.00
21100;BME280;10708;50.824;4.408;2023-03-23T19:55:02;99237.50;;;12.97;100.00
21100;BME280;10708;50.824;4.408;2023-03-23T20:00:06;99219.72;;;12.99;100.00
21100;BME280;10708;50.824;4.408;2023-03-23T20:05:10;99219.13;;;12.95;100.00
21100;BME280;10708;50.824;4.408;2023-03-23T20:10:14;99226.94;;;12.97;100.00
21100;BME280;10708;50.824;4.408;2023-03-23T20:15:17;99216.75;;;12.90;100.00
21100;BME280;10708;50.824;4.408;2023-03-23T20:20:19;99212.66;;;12.86;100.00
21100;BME280;10708;50.824;4.408;2023-03-23T20:25:23;99216.63;;;12.79;100.00
21100;BME280;10708;50.824;4.408;2023-03-23T20:30:26;99209.72;;;12.64;100.00
21100;BME280;10708;50.824;4.408;2023-03-23T20:35:29;99212.03;;;12.56;100.00
21100;BME280;10708;50.824;4.408;2023-03-23T20:40:33;99214.84;;;12.53;100.00
21100;BME280;10708;50.824;4.408;2023-03-23T20:45:35;99216.31;;;12.44;100.00
21100;BME280;10708;50.824;4.408;2023-03-23T20:50:37;99216.13;;;12.33;100.00
21100;BME280;10708;50.824;4.408;2023-03-23T20:55:41;99208.25;;;12.19;100.00
21100;BME280;10708;50.824;4.408;2023-03-23T21:00:45;99208.63;;;12.13;100.00
21100;BME280;10708;50.824;4.408;2023-03-23T21:05:49;99205.44;;;12.08;100.00
21100;BME280;10708;50.824;4.408;2023-03-23T21:10:54;99195.47;;;11.99;100.00
21100;BME280;10708;50.824;4.408;2023-03-23T21:15:57;99188.69;;;11.95;100.00
21100;BME280;10708;50.824;4.408;2023-03-23T21:21:01;99191.34;;;11.95;100.00
21100;BME280;10708;50.824;4.408;2023-03-23T21:26:06;99177.56;;;11.90;100.00
21100;BME280;10708;50.824;4.408;2023-03-23T21:31:09;99165.63;;;11.84;100.00
21100;BME280;10708;50.824;4.408;2023-03-23T21:36:12;99173.81;;;11.79;100.00
21100;BME280;10708;50.824;4.408;2023-03-23T21:41:16;99149.22;;;11.79;100.00
21100;BME280;10708;50.824;4.408;2023-03-23T21:46:18;99145.97;;;11.75;100.00
21100;BME280;10708;50.824;4.408;2023-03-23T21:51:22;99134.34;;;11.78;100.00
21100;BME280;10708;50.824;4.408;2023-03-23T21:56:26;99139.63;;;11.78;100.00
21100;BME280;10708;50.824;4.408;2023-03-23T22:01:29;99131.97;;;11.73;100.00
21100;BME280;10708;50.824;4.408;2023-03-23T22:06:31;99111.38;;;11.80;100.00
21100;BME280;10708;50.824;4.408;2023-03-23T22:11:36;99112.13;;;11.82;100.00
21100;BME280;10708;50.824;4.408;2023-03-23T22:16:39;99114.47;;;11.87;100.00
21100;BME280;10708;50.824;4.408;2023-03-23T22:21:42;99110.91;;;11.88;100.00
21100;BME280;10708;50.824;4.408;2023-03-23T22:26:46;99106.44;;;11.88;100.00
21100;BME280;10708;50.824;4.408;2023-03-23T22:31:49;99082.63;;;11.90;100.00
21100;BME280;10708;50.824;4.408;2023-03-23T22:36:51;99087.78;;;11.91;100.00
21100;BME280;10708;50.824;4.408;2023-03-23T22:41:55;99077.16;;;11.93;100.00
21100;BME280;10708;50.824;4.408;2023-03-23T22:46:57;99068.47;;;11.91;100.00
21100;BME280;10708;50.824;4.408;2023-03-23T22:51:59;99063.28;;;11.89;100.00
21100;BME280;10708;50.824;4.408;2023-03-23T22:57:03;99052.66;;;11.91;100.00
21100;BME280;10708;50.824;4.408;2023-03-23T23:02:05;99048.88;;;11.95;100.00
21100;BME280;10708;50.824;4.408;2023-03-23T23:07:08;99035.88;;;11.92;100.00
21100;BME280;10708;50.824;4.408;2023-03-23T23:12:15;99025.03;;;11.96;100.00
21100;BME280;10708;50.824;4.408;2023-03-23T23:17:18;99033.69;;;11.98;100.00
21100;BME280;10708;50.824;4.408;2023-03-23T23:22:20;99031.78;;;12.00;100.00
21100;BME280;10708;50.824;4.408;2023-03-23T23:27:24;99018.91;;;11.96;100.00
21100;BME280;10708;50.824;4.408;2023-03-23T23:32:27;99006.56;;;11.96;100.00
21100;BME280;10708;50.824;4.408;2023-03-23T23:37:29;99014.50;;;11.96;100.00
21100;BME280;10708;50.824;4.408;2023-03-23T23:42:34;99018.16;;;11.94;100.00
21100;BME280;10708;50.824;4.408;2023-03-23T23:47:37;99012.56;;;11.98;100.00
21100;BME280;10708;50.824;4.408;2023-03-23T23:52:40;98999.69;;;11.94;100.00
21100;BME280;10708;50.824;4.408;2023-03-23T23:57:47;98998.44;;;11.99;100.00
